Time;durP1;ratioP1;P1;durP2;ratioP2;P2;SDS_P1;SDS_P2;PMS_P1;PMS_P2;Temp;Humidity;BMP_temperature;BMP_pressure;BME280_temperature;BME280_humidity;BME280_pressure;Samples;Min_cycle;Max_cycle;Signal;HPM_P1;HPM_P2
2023/01/07 00:02:51;;;;;;;4.77;4.27;;;;;;;14.96;54.07;99277.00;6890108;28;20219;-77
2023/01/07 00:06:16;;;;;;;10.07;4.17;;;;;;;14.96;53.79;99266.16;6890492;28;20229;-77
2023/01/07 00:09:37;;;;;;;4.30;3.90;;;;;;;14.88;53.68;99247.44;6891351;28;20745;-76
2023/01/07 00:12:59;;;;;;;4.83;4.37;;;;;;;15.01;53.94;99277.19;6890842;28;20210;-76
2023/01/07 00:16:22;;;;;;;6.30;5.13;;;;;;;14.97;54.21;99273.25;6890109;28;20255;-77
2023/01/07 00:19:43;;;;;;;7.60;5.57;;;;;;;14.80;54.83;99277.53;6890975;28;20713;-77
2023/01/07 00:23:06;;;;;;;5.83;5.23;;;;;;;14.86;55.00;99275.84;6890679;28;20332;-77
2023/01/07 00:26:30;;;;;;;6.27;5.23;;;;;;;14.81;55.24;99267.53;6889821;28;20286;-76
2023/01/07 00:29:51;;;;;;;6.30;5.17;;;;;;;14.82;55.31;99261.03;6890800;28;20255;-77
2023/01/07 00:33:14;;;;;;;8.73;4.63;;;;;;;14.88;54.93;99262.88;6891101;28;20232;-76
2023/01/07 00:36:38;;;;;;;5.17;4.33;;;;;;;14.84;55.33;99261.66;6894236;28;20367;-77
2023/01/07 00:40:01;;;;;;;5.20;4.10;;;;;;;14.54;55.80;99257.91;6895278;28;20236;-76
2023/01/07 00:43:23;;;;;;;4.37;3.83;;;;;;;14.33;56.56;99240.09;6895047;28;20688;-77
2023/01/07 00:46:44;;;;;;;4.87;3.73;;;;;;;14.55;55.99;99248.72;6894517;28;20297;-76
2023/01/07 00:50:06;;;;;;;4.43;3.90;;;;;;;14.40;56.53;99240.88;6895033;28;20212;-76
2023/01/07 00:53:29;;;;;;;6.57;4.50;;;;;;;14.43;56.98;99245.88;6894076;28;20299;-78
2023/01/07 00:56:52;;;;;;;4.77;4.27;;;;;;;14.09;57.68;99234.59;6894177;28;20229;-76
2023/01/07 01:00:16;;;;;;;4.20;3.80;;;;;;;14.07;57.95;99240.22;6895177;28;20766;-77
2023/01/07 01:03:38;;;;;;;4.67;3.43;;;;;;;14.29;57.13;99236.16;6894978;28;20216;-76
2023/01/07 01:06:59;;;;;;;4.93;4.50;;;;;;;14.29;56.73;99241.56;6894013;28;20284;-76
2023/01/07 01:10:21;;;;;;;5.93;4.23;;;;;;;14.56;56.49;99236.81;6894450;28;20312;-77
2023/01/07 01:13:44;;;;;;;4.57;3.90;;;;;;;14.31;56.99;99223.22;6894705;28;20209;-77
2023/01/07 01:17:06;;;;;;;5.63;4.10;;;;;;;14.44;57.02;99233.13;6893996;28;20282;-76
2023/01/07 01:20:27;;;;;;;4.60;4.20;;;;;;;14.61;56.71;99234.25;6893946;28;20259;-76
2023/01/07 01:23:49;;;;;;;3.23;2.90;;;;;;;14.58;56.19;99237.44;6894268;28;20682;-76
2023/01/07 01:27:10;;;;;;;3.20;3.00;;;;;;;14.52;56.00;99228.28;6893541;28;20232;-76
2023/01/07 01:30:33;;;;;;;3.53;3.23;;;;;;;14.17;57.17;99234.34;6894154;28;20723;-76
2023/01/07 01:33:55;;;;;;;3.10;2.80;;;;;;;14.23;57.04;99226.16;6894301;28;20267;-77
2023/01/07 01:37:17;;;;;;;3.67;3.37;;;;;;;14.27;56.97;99232.03;6893109;28;20272;-76
2023/01/07 01:40:38;;;;;;;5.17;3.10;;;;;;;14.32;57.09;99222.16;6894038;28;20228;-78
2023/01/07 01:44:00;;;;;;;3.43;3.10;;;;;;;14.27;57.13;99196.75;6893962;28;20208;-77
2023/01/07 01:47:32;;;;;;;3.30;3.00;;;;;;;14.33;57.09;99229.25;6893009;28;20236;-76
2023/01/07 01:50:54;;;;;;;3.93;2.90;;;;;;;14.24;57.40;99232.44;6893104;28;20188;-76
2023/01/07 01:54:16;;;;;;;3.10;2.80;;;;;;;14.39;56.93;99205.84;6893206;28;20319;-76
2023/01/07 01:57:38;;;;;;;7.53;6.83;;;;;;;14.55;56.25;99224.28;6893093;28;20307;-76
2023/01/07 02:01:00;;;;;;;3.10;2.57;;;;;;;14.36;56.38;99219.84;6893506;28;20363;-76
2023/01/07 02:04:24;;;;;;;2.67;2.50;;;;;;;14.05;57.14;99211.66;6894510;28;20352;-77
2023/01/07 02:07:46;;;;;;;4.03;2.53;;;;;;;14.28;56.69;99206.56;6893268;28;20678;-77
2023/01/07 02:11:19;;;;;;;3.33;3.00;;;;;;;14.19;57.12;99199.72;6893144;28;20213;-77
2023/01/07 02:14:50;;;;;;;3.10;2.83;;;;;;;13.97;57.67;99193.78;6892490;28;20701;-77
2023/01/07 02:18:23;;;;;;;3.27;2.97;;;;;;;14.27;56.81;99173.16;6892508;28;20300;-76
2023/01/07 02:21:52;;;;;;;2.77;2.40;;;;;;;14.34;56.14;99186.69;6893411;28;20189;-76
2023/01/07 02:25:49;;;;;;;3.07;2.77;;;;;;;13.93;56.79;99189.81;6892029;28;20707;-76
2023/01/07 02:29:33;;;;;;;3.73;2.73;;;;;;;14.10;56.70;99187.44;6876014;28;20204;-76
2023/01/07 02:33:34;;;;;;;2.90;2.70;;;;;;;14.37;56.40;99187.09;6892414;28;20197;-78
2023/01/07 02:37:02;;;;;;;2.60;2.40;;;;;;;14.14;56.53;99183.22;6894866;28;20620;-77
2023/01/07 02:40:28;;;;;;;2.70;2.50;;;;;;;14.47;55.97;99186.59;6891110;28;20232;-76
2023/01/07 02:43:53;;;;;;;2.93;2.37;;;;;;;14.63;55.13;99184.16;6892304;28;20234;-77
2023/01/07 02:47:17;;;;;;;2.90;2.67;;;;;;;14.30;55.50;99177.31;6890504;28;20298;-76
2023/01/07 02:50:38;;;;;;;3.13;2.70;;;;;;;14.30;56.09;99167.31;6890681;28;20271;-77
2023/01/07 02:54:01;;;;;;;3.17;2.87;;;;;;;14.38;56.21;99160.75;6891698;28;20347;-76
2023/01/07 02:57:43;;;;;;;3.33;2.90;;;;;;;14.09;56.78;99155.97;6890951;28;20239;-77
2023/01/07 03:01:18;;;;;;;3.53;2.93;;;;;;;14.37;56.39;99151.81;6891807;28;20311;-76
2023/01/07 03:04:52;;;;;;;2.97;2.73;;;;;;;14.31;56.29;99146.44;6891692;28;20282;-77
2023/01/07 03:08:26;;;;;;;2.80;2.50;;;;;;;14.17;56.35;99142.94;6891636;28;20256;-76
2023/01/07 03:11:54;;;;;;;4.30;2.40;;;;;;;14.29;56.52;99134.97;6891486;28;20204;-76
2023/01/07 03:15:19;;;;;;;3.43;2.57;;;;;;;14.28;56.35;99134.13;6891027;28;20224;-76
2023/01/07 03:18:43;;;;;;;2.57;2.37;;;;;;;14.31;56.43;99143.72;6891631;28;20713;-77
2023/01/07 03:22:07;;;;;;;3.90;2.60;;;;;;;14.10;56.56;99109.63;6891551;28;20576;-76
2023/01/07 03:25:29;;;;;;;3.03;2.73;;;;;;;14.24;56.90;99134.81;6890872;28;20592;-78
2023/01/07 03:28:53;;;;;;;3.00;2.50;;;;;;;14.32;56.51;99119.09;6891330;28;20737;-77
2023/01/07 03:32:16;;;;;;;2.73;2.53;;;;;;;13.88;57.33;99112.94;6891125;28;20355;-76
2023/01/07 03:35:40;;;;;;;2.70;2.50;;;;;;;14.42;56.08;99118.59;6890688;28;20225;-76
2023/01/07 03:39:01;;;;;;;4.20;2.90;;;;;;;14.38;55.92;99093.78;6891290;28;20262;-76
2023/01/07 03:42:39;;;;;;;4.97;3.93;;;;;;;14.50;55.82;99107.44;6891581;28;20205;-76
2023/01/07 03:46:02;;;;;;;2.23;2.10;;;;;;;14.62;55.08;99098.34;6890217;28;20240;-77
2023/01/07 03:49:23;;;;;;;3.00;2.37;;;;;;;14.47;55.40;99095.19;6891113;28;20260;-76
2023/01/07 03:52:47;;;;;;;4.43;2.70;;;;;;;14.18;55.53;99063.28;6889728;28;20239;-76
2023/01/07 03:56:08;;;;;;;3.27;2.60;;;;;;;14.51;55.39;99092.84;6890276;28;20228;-76
2023/01/07 03:59:30;;;;;;;5.30;2.60;;;;;;;14.49;54.73;99079.50;6890950;28;20234;-76
2023/01/07 04:02:53;;;;;;;4.87;2.50;;;;;;;14.14;56.46;99083.75;6890727;28;20358;-76
2023/01/07 04:06:14;;;;;;;3.00;2.40;;;;;;;14.42;55.57;99084.16;6890558;28;20236;-76
2023/01/07 04:09:35;;;;;;;2.73;2.53;;;;;;;14.53;54.95;99075.31;6892088;28;20689;-76
2023/01/07 04:12:57;;;;;;;2.73;2.50;;;;;;;14.45;55.36;99080.19;6896534;28;20208;-76
2023/01/07 04:16:18;;;;;;;3.20;2.30;;;;;;;14.31;55.58;99073.19;6895479;28;20267;-76
2023/01/07 04:19:41;;;;;;;2.73;2.40;;;;;;;14.41;55.52;99081.66;6895973;28;20238;-76
2023/01/07 04:23:03;;;;;;;2.80;2.60;;;;;;;14.24;56.08;99065.13;6896643;28;20227;-76
2023/01/07 04:26:24;;;;;;;4.17;2.83;;;;;;;14.48;55.16;99071.56;6895128;28;20852;-76
2023/01/07 04:29:46;;;;;;;2.87;2.67;;;;;;;14.40;55.41;99061.03;6895499;28;20257;-76
2023/01/07 04:33:07;;;;;;;2.80;2.60;;;;;;;14.46;55.39;99052.81;6895477;28;20611;-76
2023/01/07 04:36:30;;;;;;;3.50;2.90;;;;;;;14.35;55.70;99053.56;6895405;28;20363;-76
2023/01/07 04:39:52;;;;;;;4.53;2.63;;;;;;;14.30;55.92;99064.25;6896960;28;20228;-76
2023/01/07 04:43:13;;;;;;;3.67;2.90;;;;;;;14.06;56.96;99064.19;6896625;28;20208;-77
2023/01/07 04:46:35;;;;;;;2.90;2.70;;;;;;;14.18;56.67;99054.31;6895982;28;20228;-77
2023/01/07 04:49:56;;;;;;;3.30;3.00;;;;;;;13.65;58.77;99053.03;6895354;28;20346;-77
2023/01/07 04:53:19;;;;;;;3.27;2.97;;;;;;;14.13;57.87;99051.41;6893919;28;20204;-77
2023/01/07 04:56:40;;;;;;;3.77;2.97;;;;;;;14.10;57.00;99035.59;6894470;28;20319;-76
2023/01/07 05:00:02;;;;;;;2.70;2.50;;;;;;;14.06;57.20;99043.34;6894863;28;20638;-76
2023/01/07 05:03:24;;;;;;;3.10;2.80;;;;;;;14.14;57.42;99034.09;6896864;28;20254;-78
2023/01/07 05:06:46;;;;;;;3.17;2.87;;;;;;;14.17;57.04;99004.66;6894619;28;20256;-77
2023/01/07 05:10:09;;;;;;;3.70;3.00;;;;;;;14.27;56.74;99036.75;6893980;28;20212;-76
2023/01/07 05:13:34;;;;;;;3.57;2.80;;;;;;;14.10;56.69;98987.63;6894031;28;20209;-77
2023/01/07 05:16:55;;;;;;;2.80;2.60;;;;;;;14.03;56.78;99032.09;6892863;28;20224;-77
2023/01/07 05:20:17;;;;;;;3.43;3.13;;;;;;;14.01;57.71;99016.06;6892804;28;20356;-77
2023/01/07 05:23:38;;;;;;;3.20;2.90;;;;;;;13.80;58.27;99027.28;6894819;28;20543;-77
2023/01/07 05:27:01;;;;;;;5.20;2.93;;;;;;;13.80;57.66;98983.94;6905372;28;20231;-77
2023/01/07 05:30:23;;;;;;;2.93;2.70;;;;;;;14.00;57.57;99000.03;6916557;28;20596;-77
2023/01/07 05:33:44;;;;;;;5.17;3.00;;;;;;;14.16;57.21;99013.03;6918955;28;20342;-77
2023/01/07 05:37:06;;;;;;;3.23;2.80;;;;;;;14.24;57.03;99000.03;6927231;28;20704;-76
2023/01/07 05:40:27;;;;;;;7.07;3.00;;;;;;;14.07;57.26;98998.91;6932744;28;20227;-77
2023/01/07 05:43:50;;;;;;;8.80;7.90;;;;;;;14.18;56.91;99000.06;6920464;28;20727;-77
2023/01/07 05:47:12;;;;;;;4.13;2.80;;;;;;;13.83;57.41;98996.22;6918799;28;20280;-77
2023/01/07 05:50:33;;;;;;;4.73;3.10;;;;;;;13.88;57.91;98978.25;6918978;28;20257;-77
2023/01/07 05:53:55;;;;;;;4.13;2.73;;;;;;;14.04;57.23;98960.59;6919637;28;20204;-76
2023/01/07 05:57:16;;;;;;;3.00;2.70;;;;;;;14.21;56.60;98983.41;6941762;28;20250;-77
2023/01/07 06:00:39;;;;;;;3.67;2.80;;;;;;;14.12;56.72;98984.69;6944241;28;20284;-78
2023/01/07 06:04:01;;;;;;;4.23;3.20;;;;;;;14.03;57.42;98976.00;6946983;28;20203;-77
2023/01/07 06:07:22;;;;;;;3.20;2.90;;;;;;;13.26;58.77;98967.44;6930184;28;20766;-77
2023/01/07 06:10:44;;;;;;;3.00;2.80;;;;;;;13.59;59.28;98984.31;6920093;28;20253;-77
2023/01/07 06:14:05;;;;;;;3.10;2.77;;;;;;;13.71;58.49;98985.25;6919537;28;20211;-77
2023/01/07 06:17:28;;;;;;;3.40;3.10;;;;;;;14.00;57.30;98972.91;6919223;28;20231;-78
2023/01/07 06:20:50;;;;;;;3.17;2.83;;;;;;;13.99;57.70;98971.25;6919671;28;20223;-77
2023/01/07 06:24:12;;;;;;;3.23;2.70;;;;;;;13.99;57.48;98980.19;6918838;28;20199;-77
2023/01/07 06:27:33;;;;;;;6.20;3.00;;;;;;;14.03;57.19;98973.28;6917476;28;20307;-77
2023/01/07 06:30:55;;;;;;;3.40;2.97;;;;;;;14.01;57.44;98971.84;6919095;28;20208;-77
2023/01/07 06:34:17;;;;;;;3.10;2.70;;;;;;;13.93;57.51;98977.56;6917783;28;20291;-77
2023/01/07 06:37:39;;;;;;;3.30;2.77;;;;;;;13.91;57.04;98942.56;6918213;28;20257;-78
2023/01/07 06:41:01;;;;;;;3.57;3.13;;;;;;;14.11;56.76;98966.75;6918823;28;20240;-77
2023/01/07 06:44:22;;;;;;;3.63;3.13;;;;;;;13.99;56.89;98957.72;6918088;28;20214;-77
2023/01/07 06:47:44;;;;;;;4.20;2.90;;;;;;;13.75;57.16;98967.50;6917827;28;20290;-77
2023/01/07 06:51:07;;;;;;;5.50;2.60;;;;;;;13.73;57.68;98958.75;6916806;28;20299;-77
2023/01/07 06:54:28;;;;;;;3.03;2.83;;;;;;;13.70;57.70;98955.66;6917128;28;20191;-77
2023/01/07 06:57:50;;;;;;;5.60;2.83;;;;;;;13.76;57.74;98955.59;6917131;28;20212;-77
2023/01/07 07:01:12;;;;;;;5.13;2.63;;;;;;;13.96;56.90;98955.44;6918777;28;20231;-77
2023/01/07 07:04:33;;;;;;;3.00;2.80;;;;;;;13.85;56.30;98962.41;6916403;28;20215;-77
2023/01/07 07:07:56;;;;;;;3.33;2.43;;;;;;;14.01;56.03;98944.75;6918753;28;20212;-77
2023/01/07 07:11:17;;;;;;;3.90;3.60;;;;;;;13.59;57.42;98937.41;6919909;28;20210;-77
2023/01/07 07:14:39;;;;;;;4.30;3.90;;;;;;;13.79;56.67;98946.19;6917366;28;20315;-77
2023/01/07 07:18:00;;;;;;;5.43;3.17;;;;;;;13.80;56.63;98926.19;6919760;28;20354;-78
2023/01/07 07:21:22;;;;;;;3.50;3.20;;;;;;;13.88;56.01;98929.47;6919174;28;20313;-78
2023/01/07 07:24:45;;;;;;;6.13;3.40;;;;;;;13.91;55.63;98930.88;6916588;28;20232;-78
2023/01/07 07:28:06;;;;;;;3.77;3.37;;;;;;;13.93;56.23;98918.75;6930471;28;20656;-76
2023/01/07 07:31:28;;;;;;;3.50;3.20;;;;;;;14.12;55.84;98925.03;6946562;28;20248;-76
2023/01/07 07:34:49;;;;;;;3.70;3.40;;;;;;;14.16;55.19;98929.78;6946262;28;20696;-77
2023/01/07 07:38:11;;;;;;;3.53;2.87;;;;;;;13.51;56.92;98933.09;6945971;28;20356;-77
2023/01/07 07:41:33;;;;;;;4.83;3.60;;;;;;;13.69;57.24;98932.34;6946133;28;20376;-77
2023/01/07 07:44:55;;;;;;;4.33;3.10;;;;;;;13.98;56.61;98932.47;6948668;28;20226;-77
2023/01/07 07:48:16;;;;;;;3.37;3.00;;;;;;;13.90;57.03;98929.22;6952068;28;20206;-76
2023/01/07 07:51:38;;;;;;;3.87;3.50;;;;;;;14.16;56.05;98912.69;6951649;28;20345;-75
2023/01/07 07:54:59;;;;;;;6.43;3.67;;;;;;;13.83;56.81;98910.31;6951645;28;20231;-77
2023/01/07 07:58:22;;;;;;;7.77;5.43;;;;;;;13.80;56.51;98915.38;6951932;28;20264;-78
2023/01/07 08:01:44;;;;;;;4.90;3.97;;;;;;;13.78;57.39;98920.16;6952092;28;20234;-75
2023/01/07 08:05:07;;;;;;;4.57;4.13;;;;;;;14.02;56.26;98914.72;6940959;28;20324;-76
2023/01/07 08:08:28;;;;;;;4.60;4.20;;;;;;;13.98;56.14;98902.66;6925141;28;20234;-77
2023/01/07 08:11:49;;;;;;;4.17;3.50;;;;;;;14.12;55.57;98901.47;6924085;28;20241;-76
2023/01/07 08:15:13;;;;;;;5.10;3.63;;;;;;;13.65;55.94;98906.72;6923703;28;20318;-76
2023/01/07 08:18:34;;;;;;;6.37;4.30;;;;;;;13.81;56.69;98888.00;6925930;28;20291;-79
2023/01/07 08:21:56;;;;;;;4.90;4.40;;;;;;;14.09;56.32;98899.19;6925323;28;20321;-76
2023/01/07 08:25:18;;;;;;;5.90;5.37;;;;;;;14.13;55.60;98888.72;6924601;28;20314;-79
2023/01/07 08:28:39;;;;;;;6.37;4.30;;;;;;;14.30;55.07;98903.38;6923869;28;20218;-77
2023/01/07 08:32:02;;;;;;;4.73;4.23;;;;;;;13.91;56.41;98898.34;6922958;28;20257;-76
2023/01/07 08:35:24;;;;;;;5.77;4.90;;;;;;;13.65;55.70;98857.97;6923108;28;20329;-77
2023/01/07 08:38:45;;;;;;;5.53;4.90;;;;;;;14.16;55.79;98883.69;6924662;28;20539;-77
2023/01/07 08:42:07;;;;;;;6.40;5.30;;;;;;;14.18;55.77;98887.00;6924270;28;20318;-76
2023/01/07 08:45:29;;;;;;;5.20;4.70;;;;;;;14.22;55.68;98885.50;6922605;28;20710;-76
2023/01/07 08:48:52;;;;;;;5.50;4.93;;;;;;;14.51;55.12;98875.78;6913325;28;20223;-78
2023/01/07 08:52:13;;;;;;;4.30;3.90;;;;;;;14.50;54.43;98872.25;6915281;28;20201;-77
2023/01/07 08:55:35;;;;;;;3.90;3.60;;;;;;;14.58;54.95;98880.06;6910685;28;20228;-76
2023/01/07 08:58:57;;;;;;;4.77;4.30;;;;;;;14.01;56.16;98877.81;6910783;28;20241;-75
2023/01/07 09:02:19;;;;;;;4.23;3.83;;;;;;;14.28;56.62;98867.53;6921944;28;20235;-77
2023/01/07 09:05:42;;;;;;;8.17;3.90;;;;;;;14.58;56.27;98877.34;6922095;28;20305;-76
2023/01/07 09:09:03;;;;;;;3.87;3.03;;;;;;;14.54;55.05;98878.03;6926448;28;20207;-75
2023/01/07 09:12:26;;;;;;;3.67;2.93;;;;;;;14.68;52.56;98863.25;6919778;28;20346;-78
2023/01/07 09:15:48;;;;;;;2.47;2.30;;;;;;;14.79;51.79;98865.16;6911459;28;20228;-77
2023/01/07 09:19:09;;;;;;;2.77;2.57;;;;;;;15.07;51.92;98859.94;6921467;28;20307;-76
2023/01/07 09:22:33;;;;;;;2.40;2.20;;;;;;;15.21;50.85;98859.50;6922811;28;20716;-78
2023/01/07 09:25:54;;;;;;;2.60;2.40;;;;;;;15.26;49.44;98867.78;6949046;28;20223;-76
2023/01/07 09:29:16;;;;;;;4.20;2.30;;;;;;;15.24;48.59;98859.06;6938605;28;20211;-76
2023/01/07 09:32:37;;;;;;;2.60;2.40;;;;;;;15.38;48.08;98863.25;6928436;28;20206;-76
2023/01/07 09:35:59;;;;;;;2.97;2.73;;;;;;;15.51;48.11;98871.16;6921484;28;20223;-76
2023/01/07 09:39:22;;;;;;;3.47;2.30;;;;;;;15.59;46.65;98865.41;6921300;28;20238;-76
2023/01/07 09:42:51;;;;;;;2.80;2.60;;;;;;;15.68;46.66;98857.72;6919975;28;20220;-78
2023/01/07 09:46:12;;;;;;;3.33;2.90;;;;;;;15.45;46.95;98842.22;6921063;28;20262;-76
2023/01/07 09:49:34;;;;;;;3.33;3.07;;;;;;;15.67;47.04;98870.47;6921523;28;20347;-76
2023/01/07 09:52:58;;;;;;;3.20;3.00;;;;;;;15.68;47.07;98863.16;6921389;28;20262;-76
2023/01/07 09:56:24;;;;;;;4.00;3.70;;;;;;;15.91;45.96;98863.97;6921214;28;20316;-76
2023/01/07 09:59:45;;;;;;;6.30;3.53;;;;;;;15.64;46.76;98849.19;6921458;28;20334;-77
2023/01/07 10:03:17;;;;;;;3.90;3.50;;;;;;;15.80;46.64;98862.06;6920791;28;20226;-77
2023/01/07 10:06:45;;;;;;;4.50;3.90;;;;;;;15.91;46.59;98854.97;6920746;28;20829;-76
2023/01/07 10:10:12;;;;;;;4.03;3.63;;;;;;;15.83;46.69;98855.34;6921669;28;20657;-76
2023/01/07 10:13:54;;;;;;;5.13;3.87;;;;;;;15.78;46.06;98844.34;6919230;28;20671;-77
2023/01/07 10:17:30;;;;;;;4.13;3.73;;;;;;;15.80;45.86;98840.31;6909344;28;20314;-77
2023/01/07 10:20:56;;;;;;;4.33;3.93;;;;;;;15.89;46.30;98832.63;6903655;28;20302;-76
2023/01/07 10:24:20;;;;;;;5.47;4.17;;;;;;;15.94;45.76;98824.59;6920056;28;20653;-77
2023/01/07 10:27:43;;;;;;;4.67;4.27;;;;;;;15.64;45.92;98816.56;6913137;28;20628;-77
2023/01/07 10:31:06;;;;;;;4.70;4.30;;;;;;;15.82;45.90;98808.28;6893400;28;20260;-76
2023/01/07 10:34:32;;;;;;;5.33;4.13;;;;;;;15.52;46.55;98791.28;6891635;28;20271;-77
2023/01/07 10:37:55;;;;;;;4.53;4.13;;;;;;;15.77;46.00;98799.19;6898067;28;20283;-77
2023/01/07 10:41:22;;;;;;;5.27;4.77;;;;;;;16.02;45.78;98802.47;6915142;28;20354;-77
2023/01/07 10:44:59;;;;;;;4.90;4.50;;;;;;;16.15;45.05;98785.91;6914679;28;20221;-76
2023/01/07 10:48:35;;;;;;;7.00;5.50;;;;;;;15.77;45.79;98774.72;6894016;28;20275;-77
2023/01/07 10:52:10;;;;;;;5.90;5.30;;;;;;;16.45;43.95;98771.00;6914663;28;20341;-77
2023/01/07 10:55:44;;;;;;;5.97;5.47;;;;;;;16.40;44.67;98753.78;6898657;28;20239;-77
2023/01/07 10:59:05;;;;;;;5.40;4.90;;;;;;;17.27;42.65;98767.56;6920622;28;20200;-77
2023/01/07 11:02:27;;;;;;;5.27;4.77;;;;;;;17.45;42.82;98767.31;6917430;28;20340;-77
2023/01/07 11:05:53;;;;;;;5.43;4.93;;;;;;;17.03;42.29;98765.25;6907924;28;20260;-78
2023/01/07 11:09:17;;;;;;;6.60;4.90;;;;;;;16.78;43.42;98767.53;6918756;28;20224;-76
2023/01/07 11:12:41;;;;;;;5.23;4.73;;;;;;;17.17;43.78;98742.06;6919369;28;20201;-76
2023/01/07 11:16:08;;;;;;;5.13;4.63;;;;;;;17.57;41.57;98746.25;6916354;28;20226;-76
2023/01/07 11:19:42;;;;;;;5.23;4.53;;;;;;;17.70;40.24;98736.88;6916545;28;20202;-76
2023/01/07 11:23:18;;;;;;;5.10;4.60;;;;;;;17.81;41.34;98728.56;6913300;28;20211;-77
2023/01/07 11:26:39;;;;;;;4.60;4.20;;;;;;;18.21;40.22;98725.53;6905113;28;20234;-78
2023/01/07 11:30:03;;;;;;;7.10;4.17;;;;;;;18.45;39.66;98713.28;6893061;28;20675;-75
2023/01/07 11:33:26;;;;;;;4.87;4.33;;;;;;;17.73;41.53;98707.22;6891805;28;20208;-76
2023/01/07 11:36:47;;;;;;;4.50;4.10;;;;;;;17.85;40.59;98691.53;6912477;28;20287;-77
2023/01/07 11:44:00;;;;;;;3.83;3.53;;;;;;;17.32;41.16;98685.06;7023622;27;20580;-79
2023/01/07 11:47:21;;;;;;;5.07;4.67;;;;;;;17.21;41.38;98680.56;6997717;28;20276;-78
2023/01/07 11:50:44;;;;;;;4.47;4.07;;;;;;;17.74;39.90;98658.97;7018840;28;20365;-79
2023/01/07 11:54:05;;;;;;;3.90;3.57;;;;;;;17.74;39.89;98648.06;7025774;28;20212;-78
2023/01/07 11:57:28;;;;;;;6.67;4.10;;;;;;;17.42;40.74;98668.88;7006907;28;20319;-78
2023/01/07 12:01:02;;;;;;;4.10;3.80;;;;;;;17.52;40.89;98666.31;7024700;28;20207;-78
2023/01/07 12:04:26;;;;;;;3.53;3.23;;;;;;;17.69;40.81;98648.78;7020874;28;20289;-79
2023/01/07 12:07:48;;;;;;;4.47;4.07;;;;;;;17.64;40.59;98645.19;7004466;28;20294;-79
2023/01/07 12:11:13;;;;;;;4.00;3.47;;;;;;;17.96;40.07;98641.50;7007554;28;20231;-77
2023/01/07 12:14:37;;;;;;;3.63;3.33;;;;;;;18.14;39.66;98630.22;7024930;28;20242;-77
2023/01/07 12:18:21;;;;;;;4.13;3.47;;;;;;;17.68;39.51;98633.50;7020654;28;20298;-81
2023/01/07 12:22:02;;;;;;;3.70;3.40;;;;;;;17.88;40.09;98619.28;7024636;28;20251;-76
2023/01/07 12:25:32;;;;;;;3.00;2.80;;;;;;;18.27;39.98;98609.88;7024754;28;20365;-75
2023/01/07 12:29:05;;;;;;;3.43;3.13;;;;;;;17.93;40.22;98602.97;7015829;28;20281;-76
2023/01/07 12:32:36;;;;;;;3.30;3.00;;;;;;;17.75;39.40;98592.44;7010537;28;20297;-75
2023/01/07 12:36:05;;;;;;;3.80;3.50;;;;;;;17.00;41.75;98581.38;7017065;28;20233;-76
2023/01/07 12:39:33;;;;;;;4.10;3.70;;;;;;;17.60;40.73;98582.16;7024520;28;20201;-76
2023/01/07 12:42:57;;;;;;;3.60;3.30;;;;;;;18.16;40.18;98578.13;7008648;28;20301;-76
2023/01/07 12:46:20;;;;;;;3.90;3.60;;;;;;;18.05;39.88;98579.09;6995059;28;20233;-76
2023/01/07 12:49:47;;;;;;;3.87;3.50;;;;;;;17.90;40.62;98562.56;6995797;28;20277;-76
2023/01/07 12:53:14;;;;;;;3.40;3.10;;;;;;;17.90;39.81;98568.03;7006187;28;20552;-75
2023/01/07 12:56:38;;;;;;;3.37;3.07;;;;;;;17.90;40.57;98557.94;6976993;28;20233;-75
2023/01/07 13:00:03;;;;;;;4.07;3.50;;;;;;;17.69;40.90;98545.19;6996021;28;20219;-76
2023/01/07 13:03:34;;;;;;;4.10;3.20;;;;;;;17.82;40.45;98535.78;6988605;28;20228;-77
2023/01/07 13:07:00;;;;;;;3.60;3.30;;;;;;;17.51;41.17;98534.63;6998836;28;20730;-77
2023/01/07 13:10:25;;;;;;;3.43;3.13;;;;;;;18.17;39.29;98528.72;6977938;28;20303;-76
2023/01/07 13:13:49;;;;;;;4.03;2.90;;;;;;;18.41;38.82;98523.78;7002252;28;20198;-76
2023/01/07 13:17:15;;;;;;;3.50;3.20;;;;;;;18.03;40.04;98510.31;7004505;28;20269;-76
2023/01/07 13:20:47;;;;;;;3.20;2.90;;;;;;;18.26;39.80;98509.97;6978459;28;20295;-76
2023/01/07 13:24:22;;;;;;;3.93;3.57;;;;;;;17.92;39.56;98512.13;6991552;28;20658;-77
2023/01/07 13:27:59;;;;;;;4.13;3.77;;;;;;;17.90;39.51;98514.31;6988933;28;20201;-76
2023/01/07 13:31:36;;;;;;;4.37;3.63;;;;;;;17.74;39.87;98517.97;6998804;28;20192;-77
2023/01/07 13:35:12;;;;;;;4.00;3.60;;;;;;;17.70;39.72;98494.19;6992206;28;20314;-76
2023/01/07 13:38:47;;;;;;;4.30;3.00;;;;;;;17.93;39.91;98472.06;6994705;28;20260;-76
2023/01/07 13:42:20;;;;;;;4.27;3.00;;;;;;;17.63;40.33;98499.84;6983792;28;20303;-76
2023/01/07 13:45:49;;;;;;;3.97;3.63;;;;;;;17.91;39.99;98494.13;6976113;28;20224;-76
2023/01/07 13:49:25;;;;;;;3.33;3.03;;;;;;;17.86;40.33;98487.81;6976669;28;20204;-76
2023/01/07 13:52:55;;;;;;;2.63;2.43;;;;;;;17.72;40.17;98486.56;6975965;28;20208;-76
2023/01/07 13:56:39;;;;;;;3.00;2.70;;;;;;;17.45;40.26;98453.88;6976122;28;20713;-76
2023/01/07 14:00:01;;;;;;;3.40;3.10;;;;;;;17.59;40.76;98482.38;6988914;28;20254;-76
2023/01/07 14:03:46;;;;;;;3.00;2.80;;;;;;;17.28;40.90;98485.00;7003854;28;20360;-75
2023/01/07 14:07:08;;;;;;;3.73;3.10;;;;;;;17.11;41.87;98482.34;7002811;28;20713;-75
2023/01/07 14:10:31;;;;;;;3.30;3.10;;;;;;;16.99;41.66;98491.72;7004046;28;20215;-76
2023/01/07 14:13:58;;;;;;;2.77;2.57;;;;;;;17.17;42.03;98475.88;7003661;28;20237;-76
2023/01/07 14:17:24;;;;;;;3.60;3.30;;;;;;;17.06;41.72;98476.00;7003199;28;20254;-75
2023/01/07 14:20:49;;;;;;;6.00;2.90;;;;;;;17.52;40.77;98483.66;7002899;28;20263;-77
2023/01/07 14:24:46;;;;;;;4.10;3.00;;;;;;;17.18;41.09;98473.97;7003677;28;20227;-76
2023/01/07 14:28:31;;;;;;;3.80;3.50;;;;;;;16.98;41.39;98473.75;6980239;28;20293;-77
2023/01/07 14:32:22;;;;;;;3.33;3.07;;;;;;;17.15;40.87;98475.31;6992821;28;20269;-76
2023/01/07 14:35:54;;;;;;;3.23;2.97;;;;;;;17.06;41.19;98484.19;6974399;28;20288;-76
2023/01/07 14:39:30;;;;;;;3.10;2.73;;;;;;;16.97;41.31;98483.81;6975179;28;20192;-76
2023/01/07 14:42:52;;;;;;;3.30;3.00;;;;;;;16.93;41.91;98484.56;6994794;28;20306;-76
2023/01/07 14:46:50;;;;;;;3.30;3.00;;;;;;;16.93;41.74;98484.56;7001859;28;20231;-76
2023/01/07 14:50:19;;;;;;;3.70;3.37;;;;;;;16.66;42.27;98476.31;6931382;28;20208;-76
2023/01/07 14:54:01;;;;;;;3.40;3.10;;;;;;;16.31;42.99;98486.66;6955439;28;20210;-76
2023/01/07 14:57:30;;;;;;;4.10;3.33;;;;;;;16.47;42.79;98474.97;7001747;28;20282;-77
2023/01/07 15:01:24;;;;;;;3.93;3.53;;;;;;;16.47;43.17;98476.88;7003400;28;20240;-76
2023/01/07 15:05:12;;;;;;;4.30;3.80;;;;;;;16.39;43.44;98474.56;6974897;28;20265;-78
2023/01/07 15:16:04;;;;;;;3.77;3.47;;;;;;;15.68;43.78;98488.88;6973506;28;20660;-77
2023/01/07 15:19:26;;;;;;;4.10;3.80;;;;;;;15.77;43.85;98486.59;6987277;28;20216;-77
2023/01/07 15:22:56;;;;;;;4.67;4.20;;;;;;;15.67;44.32;98486.41;6978789;28;20687;-76
2023/01/07 15:26:36;;;;;;;6.53;4.90;;;;;;;15.44;44.83;98443.88;6999711;28;20233;-77
2023/01/07 15:30:04;;;;;;;3.97;3.67;;;;;;;15.30;46.36;98485.16;6999405;28;20573;-77
2023/01/07 15:33:54;;;;;;;4.47;4.07;;;;;;;14.47;46.62;98470.38;6988110;28;20205;-77
2023/01/07 15:37:16;;;;;;;5.87;5.27;;;;;;;14.37;48.44;98486.44;7000959;28;20229;-77
2023/01/07 15:40:37;;;;;;;7.07;5.97;;;;;;;13.90;49.01;98461.16;6982133;28;20208;-76
2023/01/07 15:44:00;;;;;;;6.87;5.53;;;;;;;14.16;49.44;98471.53;6975219;28;20218;-76
2023/01/07 15:47:35;;;;;;;8.50;6.17;;;;;;;13.90;48.57;98484.72;6982396;28;20233;-77
2023/01/07 15:50:58;;;;;;;13.37;6.80;;;;;;;13.83;49.22;98478.59;6973424;28;20576;-77
2023/01/07 15:54:38;;;;;;;9.53;6.73;;;;;;;13.42;50.47;98487.56;6986573;28;20197;-78
2023/01/07 15:58:02;;;;;;;9.00;7.47;;;;;;;13.61;49.83;98463.94;7002129;28;20276;-78
2023/01/07 16:01:24;;;;;;;8.97;7.43;;;;;;;13.84;50.02;98462.09;7000706;28;20629;-77
2023/01/07 16:04:50;;;;;;;6.67;5.70;;;;;;;13.81;49.86;98465.28;6983760;28;20321;-77
2023/01/07 16:08:16;;;;;;;7.40;5.50;;;;;;;13.63;50.09;98464.56;6978452;28;20288;-77
2023/01/07 16:11:38;;;;;;;6.00;5.40;;;;;;;13.54;49.60;98438.84;6992940;28;20347;-78
2023/01/07 16:14:59;;;;;;;6.17;5.57;;;;;;;13.28;50.03;98455.50;6996516;28;20607;-78
2023/01/07 16:18:21;;;;;;;7.00;5.23;;;;;;;13.43;50.34;98448.59;6983629;28;20210;-79
2023/01/07 16:21:49;;;;;;;6.00;4.93;;;;;;;13.59;49.80;98444.41;6978200;28;20263;-82